sensor_id;sensor_type;location;lat;lon;timestamp;pressure;altitude;pressure_sealevel;temperature;humidity
12486;BME280;6307;46.804;11.580;2022-09-09T00:04:30;-21313.72;;;15.38;100.00
12486;BME280;6307;46.804;11.580;2022-09-09T00:12:52;-21317.63;;;15.51;100.00
12486;BME280;6307;46.804;11.580;2022-09-09T00:15:31;-21315.53;;;15.44;100.00
12486;BME280;6307;46.804;11.580;2022-09-09T00:18:25;-21312.38;;;15.33;100.00
12486;BME280;6307;46.804;11.580;2022-09-09T00:21:16;-21314.19;;;15.39;100.00
12486;BME280;6307;46.804;11.580;2022-09-09T00:23:50;-21315.38;;;15.43;100.00
12486;BME280;6307;46.804;11.580;2022-09-09T00:32:15;-21317.47;;;15.50;100.00
12486;BME280;6307;46.804;11.580;2022-09-09T00:34:57;-21318.38;;;15.53;100.00
12486;BME280;6307;46.804;11.580;2022-09-09T00:37:29;-21318.22;;;15.53;100.00
12486;BME280;6307;46.804;11.580;2022-09-09T00:39:59;-21320.00;;;15.59;100.00
12486;BME280;6307;46.804;11.580;2022-09-09T00:42:41;-21317.03;;;15.49;100.00
12486;BME280;6307;46.804;11.580;2022-09-09T00:48:10;-21315.69;;;15.44;100.00
12486;BME280;6307;46.804;11.580;2022-09-09T00:50:56;-21315.22;;;15.43;100.00
12486;BME280;6307;46.804;11.580;2022-09-09T00:53:54;-21308.66;;;15.21;100.00
12486;BME280;6307;46.804;11.580;2022-09-09T00:56:37;-21312.69;;;15.34;100.00
12486;BME280;6307;46.804;11.580;2022-09-09T01:00:00;-21299.53;;;14.90;100.00
12486;BME280;6307;46.804;11.580;2022-09-09T01:02:53;-21308.50;;;15.20;100.00
12486;BME280;6307;46.804;11.580;2022-09-09T01:08:52;-21310.59;;;15.27;100.00
12486;BME280;6307;46.804;11.580;2022-09-09T01:12:05;-21306.25;;;15.13;100.00
12486;BME280;6307;46.804;11.580;2022-09-09T01:17:17;-21304.91;;;15.08;100.00
12486;BME280;6307;46.804;11.580;2022-09-09T01:20:29;-21305.81;;;15.11;100.00
12486;BME280;6307;46.804;11.580;2022-09-09T01:28:49;-21304.75;;;15.08;100.00
12486;BME280;6307;46.804;11.580;2022-09-09T01:31:28;-21305.38;;;15.10;100.00
12486;BME280;6307;46.804;11.580;2022-09-09T01:34:12;-21295.19;;;14.76;100.00
12486;BME280;6307;46.804;11.580;2022-09-09T01:39:31;-21301.94;;;14.98;100.00
12486;BME280;6307;46.804;11.580;2022-09-09T01:42:00;-21304.31;;;15.06;100.00
12486;BME280;6307;46.804;11.580;2022-09-09T01:44:29;-21305.50;;;15.10;100.00
12486;BME280;6307;46.804;11.580;2022-09-09T01:46:56;-21302.06;;;14.99;100.00
12486;BME280;6307;46.804;11.580;2022-09-09T01:49:22;-21304.03;;;15.05;100.00
12486;BME280;6307;46.804;11.580;2022-09-09T01:51:52;-21301.19;;;14.96;100.00
12486;BME280;6307;46.804;11.580;2022-09-09T01:54:22;-21304.03;;;15.05;100.00
12486;BME280;6307;46.804;11.580;2022-09-09T02:00:05;-21304.63;;;15.07;100.00
12486;BME280;6307;46.804;11.580;2022-09-09T02:08:43;-21306.72;;;15.14;100.00
12486;BME280;6307;46.804;11.580;2022-09-09T02:11:19;-21310.59;;;15.27;100.00
12486;BME280;6307;46.804;11.580;2022-09-09T02:13:51;-21303.72;;;15.04;100.00
12486;BME280;6307;46.804;11.580;2022-09-09T02:16:27;-21306.25;;;15.13;100.00
12486;BME280;6307;46.804;11.580;2022-09-09T02:21:30;-21309.25;;;15.23;100.00
12486;BME280;6307;46.804;11.580;2022-09-09T02:24:03;-21310.59;;;15.27;100.00
12486;BME280;6307;46.804;11.580;2022-09-09T02:26:38;-21308.22;;;15.19;100.00
12486;BME280;6307;46.804;11.580;2022-09-09T02:29:12;-21307.75;;;15.18;100.00
12486;BME280;6307;46.804;11.580;2022-09-09T02:31:44;-21307.31;;;15.16;100.00
12486;BME280;6307;46.804;11.580;2022-09-09T02:34:13;-21305.50;;;15.10;100.00
12486;BME280;6307;46.804;11.580;2022-09-09T02:36:43;-21310.88;;;15.28;100.00
12486;BME280;6307;46.804;11.580;2022-09-09T02:39:11;-21310.88;;;15.28;100.00
12486;BME280;6307;46.804;11.580;2022-09-09T02:41:40;-21305.50;;;15.10;100.00
12486;BME280;6307;46.804;11.580;2022-09-09T02:44:14;-21312.69;;;15.34;100.00
12486;BME280;6307;46.804;11.580;2022-09-09T02:52:15;-21308.50;;;15.20;100.00
12486;BME280;6307;46.804;11.580;2022-09-09T02:54:47;-21311.50;;;15.30;100.00
12486;BME280;6307;46.804;11.580;2022-09-09T02:57:27;-21310.59;;;15.27;100.00
12486;BME280;6307;46.804;11.580;2022-09-09T02:59:57;-21308.81;;;15.21;100.00
12486;BME280;6307;46.804;11.580;2022-09-09T03:02:24;-21312.53;;;15.34;100.00
12486;BME280;6307;46.804;11.580;2022-09-09T03:04:51;-21315.84;;;15.45;100.00
12486;BME280;6307;46.804;11.580;2022-09-09T03:07:21;-21318.22;;;15.53;100.00
12486;BME280;6307;46.804;11.580;2022-09-09T03:09:47;-21311.34;;;15.30;100.00
12486;BME280;6307;46.804;11.580;2022-09-09T03:12:14;-21318.38;;;15.53;100.00
12486;BME280;6307;46.804;11.580;2022-09-09T03:14:41;-21317.03;;;15.49;100.00
12486;BME280;6307;46.804;11.580;2022-09-09T03:17:25;-21320.47;;;15.60;100.00
12486;BME280;6307;46.804;11.580;2022-09-09T03:19:53;-21323.00;;;15.69;100.00
12486;BME280;6307;46.804;11.580;2022-09-09T03:22:20;-21320.91;;;15.62;100.00
12486;BME280;6307;46.804;11.580;2022-09-09T03:24:46;-21318.06;;;15.52;100.00
12486;BME280;6307;46.804;11.580;2022-09-09T03:27:13;-21318.06;;;15.52;100.00
12486;BME280;6307;46.804;11.580;2022-09-09T03:29:42;-21320.16;;;15.59;100.00
12486;BME280;6307;46.804;11.580;2022-09-09T03:32:10;-21311.19;;;15.29;100.00
12486;BME280;6307;46.804;11.580;2022-09-09T03:34:36;-21304.16;;;15.06;100.00
12486;BME280;6307;46.804;11.580;2022-09-09T03:37:05;-21315.84;;;15.45;100.00
12486;BME280;6307;46.804;11.580;2022-09-09T03:39:32;-21315.22;;;15.43;100.00
12486;BME280;6307;46.804;11.580;2022-09-09T03:41:58;-21311.34;;;15.30;100.00
12486;BME280;6307;46.804;11.580;2022-09-09T03:44:24;-21315.09;;;15.42;100.00
12486;BME280;6307;46.804;11.580;2022-09-09T03:46:50;-21313.44;;;15.37;100.00
12486;BME280;6307;46.804;11.580;2022-09-09T03:49:16;-21316.44;;;15.47;100.00
12486;BME280;6307;46.804;11.580;2022-09-09T03:51:43;-21314.63;;;15.41;100.00
12486;BME280;6307;46.804;11.580;2022-09-09T03:54:09;-21314.94;;;15.42;100.00
12486;BME280;6307;46.804;11.580;2022-09-09T03:56:36;-21311.94;;;15.32;100.00
12486;BME280;6307;46.804;11.580;2022-09-09T03:59:03;-21310.59;;;15.27;100.00
12486;BME280;6307;46.804;11.580;2022-09-09T04:01:29;-21305.50;;;15.10;100.00
12486;BME280;6307;46.804;11.580;2022-09-09T04:03:55;-21309.84;;;15.25;100.00
12486;BME280;6307;46.804;11.580;2022-09-09T04:06:24;-21305.06;;;15.09;100.00
12486;BME280;6307;46.804;11.580;2022-09-09T04:08:51;-21301.03;;;14.95;100.00
12486;BME280;6307;46.804;11.580;2022-09-09T04:11:17;-21301.34;;;14.96;100.00
12486;BME280;6307;46.804;11.580;2022-09-09T04:13:44;-21295.66;;;14.77;100.00
12486;BME280;6307;46.804;11.580;2022-09-09T04:16:11;-21299.53;;;14.90;100.00
12486;BME280;6307;46.804;11.580;2022-09-09T04:18:41;-21302.06;;;14.99;100.00
12486;BME280;6307;46.804;11.580;2022-09-09T04:21:09;-21302.22;;;14.99;100.00
12486;BME280;6307;46.804;11.580;2022-09-09T04:23:37;-21308.34;;;15.20;100.00
12486;BME280;6307;46.804;11.580;2022-09-09T04:26:04;-21304.03;;;15.05;100.00
12486;BME280;6307;46.804;11.580;2022-09-09T04:28:32;-21305.66;;;15.11;100.00
12486;BME280;6307;46.804;11.580;2022-09-09T04:31:05;-21304.03;;;15.05;100.00
12486;BME280;6307;46.804;11.580;2022-09-09T04:33:34;-21304.03;;;15.05;100.00
12486;BME280;6307;46.804;11.580;2022-09-09T04:36:01;-21298.19;;;14.86;100.00
12486;BME280;6307;46.804;11.580;2022-09-09T04:38:27;-21298.78;;;14.88;100.00
12486;BME280;6307;46.804;11.580;2022-09-09T04:40:54;-21297.75;;;14.84;100.00
12486;BME280;6307;46.804;11.580;2022-09-09T04:43:21;-21298.34;;;14.86;100.00
12486;BME280;6307;46.804;11.580;2022-09-09T04:45:49;-21299.53;;;14.90;100.00
12486;BME280;6307;46.804;11.580;2022-09-09T04:48:16;-21297.91;;;14.85;100.00
12486;BME280;6307;46.804;11.580;2022-09-09T04:50:43;-21298.34;;;14.86;100.00
12486;BME280;6307;46.804;11.580;2022-09-09T04:53:18;-21297.91;;;14.85;100.00
12486;BME280;6307;46.804;11.580;2022-09-09T04:55:44;-21297.91;;;14.85;100.00
12486;BME280;6307;46.804;11.580;2022-09-09T04:58:11;-21298.78;;;14.88;100.00
12486;BME280;6307;46.804;11.580;2022-09-09T05:00:37;-21300.59;;;14.94;100.00
12486;BME280;6307;46.804;11.580;2022-09-09T05:03:04;-21298.50;;;14.87;100.00
12486;BME280;6307;46.804;11.580;2022-09-09T05:05:32;-21300.72;;;14.94;100.00
12486;BME280;6307;46.804;11.580;2022-09-09T05:08:03;-21297.75;;;14.84;100.00
12486;BME280;6307;46.804;11.580;2022-09-09T05:10:31;-21297.75;;;14.84;100.00
12486;BME280;6307;46.804;11.580;2022-09-09T05:12:58;-21305.81;;;15.11;100.00
12486;BME280;6307;46.804;11.580;2022-09-09T05:15:24;-21301.78;;;14.98;100.00
12486;BME280;6307;46.804;11.580;2022-09-09T05:17:51;-21304.47;;;15.07;100.00
12486;BME280;6307;46.804;11.580;2022-09-09T05:20:18;-21306.88;;;15.15;100.00
12486;BME280;6307;46.804;11.580;2022-09-09T05:22:44;-21305.50;;;15.10;100.00
12486;BME280;6307;46.804;11.580;2022-09-09T05:25:10;-21305.66;;;15.11;100.00
12486;BME280;6307;46.804;11.580;2022-09-09T05:27:36;-21307.00;;;15.15;100.00
12486;BME280;6307;46.804;11.580;2022-09-09T05:30:03;-21307.16;;;15.16;100.00
12486;BME280;6307;46.804;11.580;2022-09-09T05:32:30;-21308.66;;;15.21;100.00
12486;BME280;6307;46.804;11.580;2022-09-09T05:46:16;-21307.31;;;15.16;100.00
12486;BME280;6307;46.804;11.580;2022-09-09T05:48:46;-21305.81;;;15.11;100.00
12486;BME280;6307;46.804;11.580;2022-09-09T05:51:19;-21310.28;;;15.26;100.00
12486;BME280;6307;46.804;11.580;2022-09-09T05:53:48;-21310.75;;;15.28;100.00
12486;BME280;6307;46.804;11.580;2022-09-09T05:56:16;-21306.25;;;15.13;100.00
12486;BME280;6307;46.804;11.580;2022-09-09T05:58:46;-21306.25;;;15.13;100.00
12486;BME280;6307;46.804;11.580;2022-09-09T06:01:23;-21310.16;;;15.26;100.00
12486;BME280;6307;46.804;11.580;2022-09-09T06:03:54;-21308.22;;;15.19;100.00
12486;BME280;6307;46.804;11.580;2022-09-09T06:06:24;-21306.56;;;15.14;100.00
12486;BME280;6307;46.804;11.580;2022-09-09T06:08:53;-21311.34;;;15.30;100.00
12486;BME280;6307;46.804;11.580;2022-09-09T06:11:24;-21313.44;;;15.37;100.00
12486;BME280;6307;46.804;11.580;2022-09-09T06:13:52;-21305.38;;;15.10;100.00
12486;BME280;6307;46.804;11.580;2022-09-09T06:16:22;-21310.44;;;15.27;100.00
12486;BME280;6307;46.804;11.580;2022-09-09T06:18:50;-21307.00;;;15.15;100.00
12486;BME280;6307;46.804;11.580;2022-09-09T06:21:19;-21314.78;;;15.41;100.00
12486;BME280;6307;46.804;11.580;2022-09-09T06:23:47;-21319.25;;;15.56;100.00
12486;BME280;6307;46.804;11.580;2022-09-09T06:26:17;-21319.72;;;15.58;100.00
12486;BME280;6307;46.804;11.580;2022-09-09T06:28:47;-21315.09;;;15.42;100.00
12486;BME280;6307;46.804;11.580;2022-09-09T06:31:19;-21314.63;;;15.41;100.00
12486;BME280;6307;46.804;11.580;2022-09-09T06:33:48;-21309.53;;;15.24;100.00
12486;BME280;6307;46.804;11.580;2022-09-09T06:36:25;-21318.38;;;15.53;100.00
12486;BME280;6307;46.804;11.580;2022-09-09T06:38:56;-21321.66;;;15.64;100.00
12486;BME280;6307;46.804;11.580;2022-09-09T06:41:25;-21316.72;;;15.48;100.00
12486;BME280;6307;46.804;11.580;2022-09-09T06:43:53;-21315.38;;;15.43;100.00
12486;BME280;6307;46.804;11.580;2022-09-09T06:46:25;-21318.66;;;15.54;100.00
12486;BME280;6307;46.804;11.580;2022-09-09T06:48:53;-21325.09;;;15.76;100.00
12486;BME280;6307;46.804;11.580;2022-09-09T06:51:23;-21322.41;;;15.67;100.00
12486;BME280;6307;46.804;11.580;2022-09-09T06:53:57;-21320.91;;;15.62;100.00
12486;BME280;6307;46.804;11.580;2022-09-09T06:56:28;-21326.28;;;15.80;100.00
12486;BME280;6307;46.804;11.580;2022-09-09T06:58:56;-21326.88;;;15.82;100.00
12486;BME280;6307;46.804;11.580;2022-09-09T07:01:28;-21331.81;;;15.98;100.00
12486;BME280;6307;46.804;11.580;2022-09-09T07:03:57;-21332.69;;;16.01;100.00
12486;BME280;6307;46.804;11.580;2022-09-09T07:06:28;-21334.19;;;16.06;100.00
12486;BME280;6307;46.804;11.580;2022-09-09T07:09:05;-21332.09;;;15.99;100.00
12486;BME280;6307;46.804;11.580;2022-09-09T07:11:41;-21331.81;;;15.98;100.00
12486;BME280;6307;46.804;11.580;2022-09-09T07:14:09;-21334.34;;;16.07;100.00
12486;BME280;6307;46.804;11.580;2022-09-09T07:16:42;-21335.09;;;16.09;100.00
12486;BME280;6307;46.804;11.580;2022-09-09T07:19:10;-21329.41;;;15.90;100.00
12486;BME280;6307;46.804;11.580;2022-09-09T07:21:37;-21333.00;;;16.02;100.00
12486;BME280;6307;46.804;11.580;2022-09-09T07:24:05;-21334.78;;;16.08;100.00
12486;BME280;6307;46.804;11.580;2022-09-09T07:26:37;-21324.78;;;15.75;100.00
12486;BME280;6307;46.804;11.580;2022-09-09T07:29:04;-21337.03;;;16.15;100.00
12486;BME280;6307;46.804;11.580;2022-09-09T07:31:32;-21340.59;;;16.27;100.00
12486;BME280;6307;46.804;11.580;2022-09-09T07:34:02;-21342.56;;;16.34;100.00
12486;BME280;6307;46.804;11.580;2022-09-09T07:36:31;-21339.41;;;16.23;100.00
12486;BME280;6307;46.804;11.580;2022-09-09T07:39:01;-21333.91;;;16.05;100.00
12486;BME280;6307;46.804;11.580;2022-09-09T07:41:40;-21328.66;;;15.88;100.00
12486;BME280;6307;46.804;11.580;2022-09-09T07:44:20;-21325.22;;;15.76;100.00
12486;BME280;6307;46.804;11.580;2022-09-09T07:46:47;-21323.59;;;15.71;100.00
12486;BME280;6307;46.804;11.580;2022-09-09T07:49:14;-21322.41;;;15.67;100.00
12486;BME280;6307;46.804;11.580;2022-09-09T07:51:43;-21318.97;;;15.55;100.00
12486;BME280;6307;46.804;11.580;2022-09-09T07:54:13;-21309.84;;;15.25;100.00
12486;BME280;6307;46.804;11.580;2022-09-09T07:56:41;-21310.28;;;15.26;100.00
12486;BME280;6307;46.804;11.580;2022-09-09T07:59:08;-21304.31;;;15.06;100.00
12486;BME280;6307;46.804;11.580;2022-09-09T08:01:41;-21308.06;;;15.19;100.00
12486;BME280;6307;46.804;11.580;2022-09-09T08:04:14;-21307.75;;;15.18;100.00
12486;BME280;6307;46.804;11.580;2022-09-09T08:06:46;-21311.03;;;15.29;100.00
12486;BME280;6307;46.804;11.580;2022-09-09T08:09:18;-21314.78;;;15.41;100.00
12486;BME280;6307;46.804;11.580;2022-09-09T08:11:46;-21312.38;;;15.33;100.00
12486;BME280;6307;46.804;11.580;2022-09-09T08:14:13;-21305.66;;;15.11;100.00
12486;BME280;6307;46.804;11.580;2022-09-09T08:16:45;-21298.66;;;14.87;100.00
12486;BME280;6307;46.804;11.580;2022-09-09T08:19:13;-21296.84;;;14.81;100.00
12486;BME280;6307;46.804;11.580;2022-09-09T08:21:41;-21305.81;;;15.11;100.00
12486;BME280;6307;46.804;11.580;2022-09-09T08:24:08;-21303.56;;;15.04;100.00
12486;BME280;6307;46.804;11.580;2022-09-09T08:26:38;-21302.38;;;15.00;100.00
12486;BME280;6307;46.804;11.580;2022-09-09T08:29:11;-21311.50;;;15.30;100.00
12486;BME280;6307;46.804;11.580;2022-09-09T08:31:41;-21301.78;;;14.98;100.00
12486;BME280;6307;46.804;11.580;2022-09-09T08:34:09;-21304.63;;;15.07;100.00
12486;BME280;6307;46.804;11.580;2022-09-09T08:36:38;-21302.69;;;15.01;100.00
12486;BME280;6307;46.804;11.580;2022-09-09T08:39:08;-21299.84;;;14.91;100.00
12486;BME280;6307;46.804;11.580;2022-09-09T08:42:04;-21307.59;;;15.17;100.00
12486;BME280;6307;46.804;11.580;2022-09-09T08:50:33;-21290.88;;;14.61;100.00
12486;BME280;6307;46.804;11.580;2022-09-09T08:53:24;-21292.53;;;14.67;100.00
12486;BME280;6307;46.804;11.580;2022-09-09T08:56:07;-21292.66;;;14.67;100.00
12486;BME280;6307;46.804;11.580;2022-09-09T08:58:47;-21295.66;;;14.77;100.00
12486;BME280;6307;46.804;11.580;2022-09-09T09:04:21;-21288.78;;;14.54;100.00
12486;BME280;6307;46.804;11.580;2022-09-09T09:10:10;-21287.59;;;14.50;100.00
12486;BME280;6307;46.804;11.580;2022-09-09T09:12:53;-21293.41;;;14.70;100.00
12486;BME280;6307;46.804;11.580;2022-09-09T09:15:24;-21285.34;;;14.43;100.00
12486;BME280;6307;46.804;11.580;2022-09-09T09:17:53;-21280.56;;;14.27;100.00
12486;BME280;6307;46.804;11.580;2022-09-09T09:20:54;-21284.16;;;14.39;100.00
12486;BME280;6307;46.804;11.580;2022-09-09T09:23:46;-21292.22;;;14.66;100.00
12486;BME280;6307;46.804;11.580;2022-09-09T09:26:31;-21294.00;;;14.72;100.00
12486;BME280;6307;46.804;11.580;2022-09-09T09:29:09;-21295.19;;;14.76;100.00
12486;BME280;6307;46.804;11.580;2022-09-09T09:31:52;-21295.34;;;14.76;100.00
12486;BME280;6307;46.804;11.580;2022-09-09T09:34:24;-21295.50;;;14.77;100.00
12486;BME280;6307;46.804;11.580;2022-09-09T09:36:55;-21297.28;;;14.83;100.00
12486;BME280;6307;46.804;11.580;2022-09-09T09:41:52;-21296.09;;;14.79;100.00
12486;BME280;6307;46.804;11.580;2022-09-09T09:44:40;-21295.06;;;14.75;100.00
12486;BME280;6307;46.804;11.580;2022-09-09T09:47:17;-21294.75;;;14.74;100.00
12486;BME280;6307;46.804;11.580;2022-09-09T09:49:59;-21297.44;;;14.83;100.00
12486;BME280;6307;46.804;11.580;2022-09-09T09:52:29;-21298.03;;;14.85;100.00
12486;BME280;6307;46.804;11.580;2022-09-09T09:54:58;-21301.19;;;14.96;100.00
12486;BME280;6307;46.804;11.580;2022-09-09T09:57:31;-21301.03;;;14.95;100.00
12486;BME280;6307;46.804;11.580;2022-09-09T10:00:17;-21306.56;;;15.14;100.00
12486;BME280;6307;46.804;11.580;2022-09-09T10:02:48;-21303.88;;;15.05;100.00
12486;BME280;6307;46.804;11.580;2022-09-09T10:05:25;-21299.69;;;14.91;100.00
12486;BME280;6307;46.804;11.580;2022-09-09T10:08:05;-21296.53;;;14.80;100.00
12486;BME280;6307;46.804;11.580;2022-09-09T10:14:21;-21295.34;;;14.76;100.00
12486;BME280;6307;46.804;11.580;2022-09-09T10:17:31;-21293.41;;;14.70;100.00
12486;BME280;6307;46.804;11.580;2022-09-09T10:22:35;-21287.88;;;14.51;100.00
12486;BME280;6307;46.804;11.580;2022-09-09T10:28:46;-21295.34;;;14.76;100.00
12486;BME280;6307;46.804;11.580;2022-09-09T10:32:16;-21293.84;;;14.71;100.00
12486;BME280;6307;46.804;11.580;2022-09-09T10:37:50;-21307.47;;;15.17;100.00
12486;BME280;6307;46.804;11.580;2022-09-09T10:40:43;-21311.50;;;15.30;100.00
12486;BME280;6307;46.804;11.580;2022-09-09T10:56:16;-21340.47;;;16.27;100.00
12486;BME280;6307;46.804;11.580;2022-09-09T10:58:54;-21340.00;;;16.25;100.00
12486;BME280;6307;46.804;11.580;2022-09-09T11:01:32;-21339.13;;;16.22;100.00
12486;BME280;6307;46.804;11.580;2022-09-09T11:04:22;-21342.69;;;16.34;100.00
12486;BME280;6307;46.804;11.580;2022-09-09T11:07:10;-21343.91;;;16.38;100.00
12486;BME280;6307;46.804;11.580;2022-09-09T11:09:45;-21349.28;;;16.56;100.00
12486;BME280;6307;46.804;11.580;2022-09-09T11:12:19;-21355.38;;;16.77;100.00
12486;BME280;6307;46.804;11.580;2022-09-09T11:14:46;-21361.19;;;16.96;100.00
12486;BME280;6307;46.804;11.580;2022-09-09T11:17:26;-21362.41;;;17.00;100.00
12486;BME280;6307;46.804;11.580;2022-09-09T11:20:13;-21358.66;;;16.88;100.00
12486;BME280;6307;46.804;11.580;2022-09-09T11:22:48;-21354.19;;;16.73;100.00
12486;BME280;6307;46.804;11.580;2022-09-09T11:25:43;-21342.84;;;16.35;100.00
12486;BME280;6307;46.804;11.580;2022-09-09T11:28:28;-21344.94;;;16.42;100.00
12486;BME280;6307;46.804;11.580;2022-09-09T11:42:22;-21358.38;;;16.87;100.00
12486;BME280;6307;46.804;11.580;2022-09-09T11:44:50;-21358.97;;;16.89;100.00
12486;BME280;6307;46.804;11.580;2022-09-09T11:47:22;-21349.88;;;16.58;100.00
12486;BME280;6307;46.804;11.580;2022-09-09T11:52:46;-21348.53;;;16.54;100.00
12486;BME280;6307;46.804;11.580;2022-09-09T11:55:29;-21342.84;;;16.35;100.00
12486;BME280;6307;46.804;11.580;2022-09-09T12:00:48;-21371.19;;;17.30;100.00
12486;BME280;6307;46.804;11.580;2022-09-09T12:03:39;-21378.34;;;17.54;100.00
12486;BME280;6307;46.804;11.580;2022-09-09T12:06:25;-21394.44;;;18.08;100.00
12486;BME280;6307;46.804;11.580;2022-09-09T12:09:13;-21407.25;;;18.51;100.00
12486;BME280;6307;46.804;11.580;2022-09-09T12:17:19;-21434.22;;;19.41;100.00
12486;BME280;6307;46.804;11.580;2022-09-09T12:26:06;-21435.13;;;19.44;100.00
12486;BME280;6307;46.804;11.580;2022-09-09T12:32:21;-21460.25;;;20.29;100.00
12486;BME280;6307;46.804;11.580;2022-09-09T12:35:04;-21460.69;;;20.30;100.00
12486;BME280;6307;46.804;11.580;2022-09-09T12:37:37;-21441.50;;;19.66;100.00
12486;BME280;6307;46.804;11.580;2022-09-09T12:40:33;-21438.38;;;19.55;100.00
12486;BME280;6307;46.804;11.580;2022-09-09T12:43:18;-21426.63;;;19.16;100.00
12486;BME280;6307;46.804;11.580;2022-09-09T12:45:47;-21424.38;;;19.08;100.00
12486;BME280;6307;46.804;11.580;2022-09-09T12:48:18;-21417.09;;;18.84;100.00
12486;BME280;6307;46.804;11.580;2022-09-09T12:50:50;-21414.28;;;18.74;100.00
12486;BME280;6307;46.804;11.580;2022-09-09T12:53:33;-21411.59;;;18.65;100.00
12486;BME280;6307;46.804;11.580;2022-09-09T12:56:09;-21410.25;;;18.61;100.00
12486;BME280;6307;46.804;11.580;2022-09-09T12:58:47;-21402.66;;;18.35;100.00
12486;BME280;6307;46.804;11.580;2022-09-09T13:01:34;-21396.09;;;18.13;100.00
12486;BME280;6307;46.804;11.580;2022-09-09T13:04:01;-21390.88;;;17.96;100.00
12486;BME280;6307;46.804;11.580;2022-09-09T13:06:29;-21382.53;;;17.68;100.00
12486;BME280;6307;46.804;11.580;2022-09-09T13:08:59;-21379.69;;;17.58;100.00
12486;BME280;6307;46.804;11.580;2022-09-09T13:11:53;-21373.59;;;17.38;100.00
12486;BME280;6307;46.804;11.580;2022-09-09T13:14:34;-21378.81;;;17.55;100.00
12486;BME280;6307;46.804;11.580;2022-09-09T13:17:06;-21383.28;;;17.70;100.00
12486;BME280;6307;46.804;11.580;2022-09-09T13:19:44;-21385.22;;;17.77;100.00
12486;BME280;6307;46.804;11.580;2022-09-09T13:22:26;-21386.41;;;17.81;100.00
12486;BME280;6307;46.804;11.580;2022-09-09T13:25:18;-21398.31;;;18.21;100.00
12486;BME280;6307;46.804;11.580;2022-09-09T13:27:59;-21407.72;;;18.52;100.00
12486;BME280;6307;46.804;11.580;2022-09-09T13:36:01;-21418.00;;;18.87;100.00
12486;BME280;6307;46.804;11.580;2022-09-09T13:38:33;-21433.31;;;19.38;100.00
12486;BME280;6307;46.804;11.580;2022-09-09T13:41:03;-21450.88;;;19.97;100.00
12486;BME280;6307;46.804;11.580;2022-09-09T13:43:42;-21459.22;;;20.25;100.00
12486;BME280;6307;46.804;11.580;2022-09-09T13:46:35;-21457.00;;;20.18;100.00
12486;BME280;6307;46.804;11.580;2022-09-09T13:54:06;-21450.88;;;19.97;100.00
12486;BME280;6307;46.804;11.580;2022-09-09T13:56:37;-21450.88;;;19.97;100.00
12486;BME280;6307;46.804;11.580;2022-09-09T13:59:06;-21448.50;;;19.89;100.00
12486;BME280;6307;46.804;11.580;2022-09-09T14:01:39;-21439.13;;;19.58;100.00
12486;BME280;6307;46.804;11.580;2022-09-09T14:04:06;-21441.50;;;19.66;100.00
12486;BME280;6307;46.804;11.580;2022-09-09T14:06:32;-21439.44;;;19.59;100.00
12486;BME280;6307;46.804;11.580;2022-09-09T14:09:02;-21442.09;;;19.68;100.00
12486;BME280;6307;46.804;11.580;2022-09-09T14:11:29;-21446.41;;;19.82;100.00
12486;BME280;6307;46.804;11.580;2022-09-09T14:13:55;-21441.38;;;19.65;100.00
12486;BME280;6307;46.804;11.580;2022-09-09T14:16:21;-21433.63;;;19.39;100.00
12486;BME280;6307;46.804;11.580;2022-09-09T14:18:48;-21438.69;;;19.56;100.00
12486;BME280;6307;46.804;11.580;2022-09-09T14:21:14;-21437.94;;;19.54;100.00
12486;BME280;6307;46.804;11.580;2022-09-09T14:23:41;-21427.81;;;19.20;100.00
12486;BME280;6307;46.804;11.580;2022-09-09T14:26:07;-21434.38;;;19.42;100.00
12486;BME280;6307;46.804;11.580;2022-09-09T14:28:35;-21430.19;;;19.28;100.00
12486;BME280;6307;46.804;11.580;2022-09-09T14:31:03;-21423.06;;;19.04;100.00
12486;BME280;6307;46.804;11.580;2022-09-09T14:33:30;-21421.13;;;18.97;100.00
12486;BME280;6307;46.804;11.580;2022-09-09T14:36:02;-21420.38;;;18.95;100.00
12486;BME280;6307;46.804;11.580;2022-09-09T14:38:30;-21440.31;;;19.62;100.00
12486;BME280;6307;46.804;11.580;2022-09-09T14:40:59;-21420.66;;;18.96;100.00
12486;BME280;6307;46.804;11.580;2022-09-09T14:43:29;-21412.47;;;18.68;100.00
12486;BME280;6307;46.804;11.580;2022-09-09T14:48:34;-21401.59;;;18.32;100.00
12486;BME280;6307;46.804;11.580;2022-09-09T14:51:15;-21398.19;;;18.20;100.00
12486;BME280;6307;46.804;11.580;2022-09-09T14:53:47;-21382.69;;;17.68;100.00
12486;BME280;6307;46.804;11.580;2022-09-09T14:56:18;-21379.09;;;17.56;100.00
12486;BME280;6307;46.804;11.580;2022-09-09T14:58:48;-21374.19;;;17.40;100.00
12486;BME280;6307;46.804;11.580;2022-09-09T15:01:17;-21370.59;;;17.28;100.00
12486;BME280;6307;46.804;11.580;2022-09-09T15:04:11;-21369.72;;;17.25;100.00
12486;BME280;6307;46.804;11.580;2022-09-09T15:06:36;-21363.59;;;17.04;100.00
12486;BME280;6307;46.804;11.580;2022-09-09T15:09:04;-21366.44;;;17.14;100.00
12486;BME280;6307;46.804;11.580;2022-09-09T15:11:34;-21371.03;;;17.29;100.00
12486;BME280;6307;46.804;11.580;2022-09-09T15:14:06;-21366.72;;;17.15;100.00
12486;BME280;6307;46.804;11.580;2022-09-09T15:16:34;-21368.66;;;17.21;100.00
12486;BME280;6307;46.804;11.580;2022-09-09T15:19:02;-21355.69;;;16.78;100.00
12486;BME280;6307;46.804;11.580;2022-09-09T15:21:31;-21355.38;;;16.77;100.00
12486;BME280;6307;46.804;11.580;2022-09-09T15:23:59;-21351.06;;;16.62;100.00
12486;BME280;6307;46.804;11.580;2022-09-09T15:26:26;-21353.91;;;16.72;100.00
12486;BME280;6307;46.804;11.580;2022-09-09T15:28:53;-21361.34;;;16.97;100.00
12486;BME280;6307;46.804;11.580;2022-09-09T15:31:24;-21358.81;;;16.88;100.00
12486;BME280;6307;46.804;11.580;2022-09-09T15:34:00;-21351.94;;;16.65;100.00
12486;BME280;6307;46.804;11.580;2022-09-09T15:36:32;-21351.50;;;16.64;100.00
12486;BME280;6307;46.804;11.580;2022-09-09T15:39:01;-21355.84;;;16.78;100.00